createdAt,value
2022-12-23T00:01:24.321Z,8.61
2022-12-23T00:03:50.958Z,8.70
2022-12-23T00:06:17.444Z,8.62
2022-12-23T00:08:43.841Z,8.53
2022-12-23T00:11:10.270Z,8.61
2022-12-23T00:13:55.251Z,8.60
2022-12-23T00:16:21.732Z,8.66
2022-12-23T00:18:48.202Z,8.86
2022-12-23T00:21:14.620Z,8.42
2022-12-23T00:23:41.003Z,8.38
2022-12-23T00:26:07.364Z,8.64
2022-12-23T00:28:33.772Z,8.50
2022-12-23T00:31:00.144Z,8.50
2022-12-23T00:33:26.503Z,8.51
2022-12-23T00:35:52.923Z,8.53
2022-12-23T00:38:39.369Z,8.66
2022-12-23T00:41:24.456Z,8.62
2022-12-23T00:43:50.857Z,8.59
2022-12-23T00:46:17.285Z,8.63
2022-12-23T00:49:02.294Z,8.66
2022-12-23T00:51:28.715Z,8.62
2022-12-23T00:53:55.062Z,8.53
2022-12-23T00:56:21.502Z,8.63
2022-12-23T00:58:47.872Z,8.61
2022-12-23T01:01:32.869Z,8.50
2022-12-23T01:04:17.865Z,8.65
2022-12-23T01:06:44.265Z,8.66
2022-12-23T01:09:10.795Z,8.67
2022-12-23T01:11:37.211Z,8.59
2022-12-23T01:14:03.585Z,8.47
2022-12-23T01:16:30.012Z,8.60
2022-12-23T01:18:56.424Z,8.61
2022-12-23T01:21:23.541Z,8.58
2022-12-23T01:23:49.898Z,8.60
2022-12-23T01:26:16.282Z,8.54
2022-12-23T01:28:42.683Z,8.56
2022-12-23T01:31:09.055Z,8.58
2022-12-23T01:33:36.960Z,8.55
2022-12-23T01:36:03.347Z,8.42
2022-12-23T01:38:29.760Z,8.43
2022-12-23T01:40:56.180Z,8.53
2022-12-23T01:43:22.699Z,8.55
2022-12-23T01:45:49.113Z,8.43
2022-12-23T01:48:15.642Z,8.62
2022-12-23T01:50:42.024Z,8.40
2022-12-23T01:53:08.782Z,8.42
2022-12-23T01:55:35.215Z,8.30
2022-12-23T01:58:01.685Z,8.44
2022-12-23T02:00:46.648Z,8.44
2022-12-23T02:03:32.215Z,8.43
2022-12-23T02:06:18.589Z,8.34
2022-12-23T02:09:03.815Z,8.27
2022-12-23T02:11:30.232Z,8.25
2022-12-23T02:14:15.582Z,8.62
2022-12-23T02:16:42.026Z,8.43
2022-12-23T02:19:08.433Z,8.55
2022-12-23T02:21:34.843Z,8.43
2022-12-23T02:24:01.278Z,8.76
2022-12-23T02:26:27.663Z,8.34
2022-12-23T02:28:54.103Z,8.45
2022-12-23T02:31:20.515Z,8.41
2022-12-23T02:33:46.946Z,8.48
2022-12-23T02:36:13.327Z,8.30
2022-12-23T02:38:39.707Z,8.42
2022-12-23T02:41:06.110Z,8.46
2022-12-23T02:43:32.528Z,8.63
2022-12-23T02:45:58.909Z,8.48
2022-12-23T02:48:28.331Z,8.52
2022-12-23T02:50:54.789Z,8.45
2022-12-23T02:53:24.134Z,8.57
2022-12-23T02:55:50.511Z,8.38
2022-12-23T02:58:16.910Z,8.26
2022-12-23T03:00:43.287Z,8.54
2022-12-23T03:03:09.764Z,8.45
2022-12-23T03:05:36.190Z,8.72
2022-12-23T03:08:02.770Z,8.81
2022-12-23T03:10:29.177Z,8.56
2022-12-23T03:12:55.569Z,8.68
2022-12-23T03:15:21.924Z,8.81
2022-12-23T03:17:48.322Z,8.88
2022-12-23T03:20:14.798Z,8.51
2022-12-23T03:22:41.257Z,8.45
2022-12-23T03:25:07.638Z,8.41
2022-12-23T03:27:34.116Z,8.49
2022-12-23T03:30:00.460Z,8.49
2022-12-23T03:32:26.840Z,8.55
2022-12-23T03:34:53.239Z,8.55
2022-12-23T03:37:19.604Z,8.45
2022-12-23T03:39:46.007Z,8.52
2022-12-23T03:42:12.391Z,8.47
2022-12-23T03:44:38.791Z,8.36
2022-12-23T03:47:05.201Z,8.36
2022-12-23T03:49:31.705Z,8.10
2022-12-23T03:51:58.093Z,8.27
2022-12-23T03:54:24.470Z,8.35
2022-12-23T03:56:50.856Z,8.38
2022-12-23T03:59:17.239Z,8.32
2022-12-23T04:01:43.823Z,8.25
2022-12-23T04:04:10.364Z,8.35
2022-12-23T04:06:36.822Z,8.41
2022-12-23T04:09:03.180Z,8.45
2022-12-23T04:11:29.592Z,8.27
2022-12-23T04:13:56.025Z,8.26
2022-12-23T04:16:22.485Z,8.05
2022-12-23T04:18:48.897Z,8.11
2022-12-23T04:21:15.307Z,8.25
2022-12-23T04:23:41.749Z,8.25
2022-12-23T04:26:08.099Z,8.32
2022-12-23T04:28:34.484Z,8.16
2022-12-23T04:31:03.851Z,8.27
2022-12-23T04:33:30.470Z,8.38
2022-12-23T04:35:56.859Z,8.11
2022-12-23T04:38:23.326Z,8.33
2022-12-23T04:40:49.674Z,8.23
2022-12-23T04:43:16.130Z,8.29
2022-12-23T04:45:42.537Z,8.21
2022-12-23T04:48:09.497Z,8.43
2022-12-23T04:50:35.838Z,8.31
2022-12-23T04:53:02.230Z,8.38
2022-12-23T04:55:28.592Z,8.33
2022-12-23T04:57:55.005Z,8.35
2022-12-23T05:00:23.802Z,8.09
2022-12-23T05:02:50.320Z,8.37
2022-12-23T05:05:16.867Z,8.61
2022-12-23T05:07:43.248Z,8.39
2022-12-23T05:10:09.634Z,8.17
2022-12-23T05:12:36.047Z,8.39
2022-12-23T05:15:02.398Z,8.21
2022-12-23T05:17:28.808Z,8.32
2022-12-23T05:19:55.209Z,8.10
2022-12-23T05:22:21.664Z,7.99
2022-12-23T05:24:48.013Z,8.08
2022-12-23T05:27:14.385Z,8.16
2022-12-23T05:29:40.741Z,8.16
2022-12-23T05:32:07.499Z,7.95
2022-12-23T05:34:33.977Z,7.99
2022-12-23T05:37:00.385Z,8.09
2022-12-23T05:39:26.759Z,8.16
2022-12-23T05:41:53.160Z,8.22
2022-12-23T05:44:22.310Z,8.14
2022-12-23T05:46:48.737Z,8.04
2022-12-23T05:49:15.183Z,8.00
2022-12-23T05:51:41.561Z,7.99
2022-12-23T05:54:07.937Z,8.16
2022-12-23T05:56:34.360Z,8.13
2022-12-23T05:59:00.721Z,8.20
2022-12-23T06:01:27.155Z,8.30
2022-12-23T06:03:53.701Z,8.31
2022-12-23T06:06:20.153Z,8.10
2022-12-23T06:08:46.553Z,8.13
2022-12-23T06:11:13.200Z,8.29
2022-12-23T06:13:39.603Z,8.29
2022-12-23T06:16:05.991Z,8.30
2022-12-23T06:18:32.442Z,8.31
2022-12-23T06:20:58.810Z,8.21
2022-12-23T06:23:25.235Z,8.24
2022-12-23T06:25:51.721Z,8.28
2022-12-23T06:31:52.230Z,8.31
2022-12-23T06:34:18.645Z,8.48
2022-12-23T06:36:45.025Z,8.45
2022-12-23T06:39:11.357Z,8.27
2022-12-23T06:41:37.769Z,8.36
2022-12-23T06:44:04.110Z,8.49
2022-12-23T06:46:30.618Z,8.34
2022-12-23T06:48:57.056Z,8.40
2022-12-23T06:51:23.436Z,8.41
2022-12-23T06:53:49.825Z,8.37
2022-12-23T06:56:16.179Z,8.31
2022-12-23T06:58:42.607Z,8.37
2022-12-23T07:01:10.225Z,8.18
2022-12-23T07:03:36.868Z,8.43
2022-12-23T07:06:03.569Z,8.44
2022-12-23T07:08:30.195Z,8.35
2022-12-23T07:10:56.537Z,8.47
2022-12-23T07:13:22.947Z,8.53
2022-12-23T07:15:49.287Z,8.63
2022-12-23T07:18:15.719Z,8.61
2022-12-23T07:20:42.088Z,8.67
2022-12-23T07:23:08.514Z,8.65
2022-12-23T07:29:04.609Z,8.58
2022-12-23T07:31:31.083Z,8.67
2022-12-23T07:33:57.462Z,8.78
2022-12-23T07:36:23.875Z,8.75
2022-12-23T07:38:51.304Z,8.69
2022-12-23T07:41:17.853Z,8.40
2022-12-23T07:43:44.275Z,8.55
2022-12-23T07:46:10.786Z,8.70
2022-12-23T07:48:37.299Z,8.57
2022-12-23T07:51:03.720Z,8.48
2022-12-23T07:53:30.148Z,8.35
2022-12-23T07:55:57.038Z,8.53
2022-12-23T07:58:23.564Z,8.54
2022-12-23T08:00:50.243Z,8.45
2022-12-23T08:03:16.668Z,8.63
2022-12-23T08:05:43.110Z,8.52
2022-12-23T08:08:09.502Z,8.42
2022-12-23T08:10:35.843Z,8.39
2022-12-23T08:13:02.251Z,8.63
2022-12-23T08:15:28.632Z,8.69
2022-12-23T08:17:54.999Z,8.46
2022-12-23T08:20:21.332Z,8.68
2022-12-23T08:22:47.756Z,8.58
2022-12-23T08:25:14.098Z,8.68
2022-12-23T08:27:40.463Z,8.57
2022-12-23T08:30:06.802Z,8.57
2022-12-23T08:32:33.157Z,8.65
2022-12-23T08:34:59.511Z,8.73
2022-12-23T08:37:25.970Z,8.70
2022-12-23T08:39:52.317Z,8.72
2022-12-23T08:42:19.314Z,8.70
2022-12-23T08:44:45.682Z,8.74
2022-12-23T08:47:12.159Z,8.64
2022-12-23T08:49:38.517Z,8.68
2022-12-23T08:52:04.885Z,8.80
2022-12-23T08:54:31.300Z,8.83
2022-12-23T08:56:57.713Z,8.89
2022-12-23T08:59:24.070Z,9.03
2022-12-23T09:01:50.528Z,9.02
2022-12-23T09:04:17.101Z,9.05
2022-12-23T09:06:43.585Z,9.12
2022-12-23T09:09:09.938Z,9.13
2022-12-23T09:11:36.355Z,9.09
2022-12-23T09:14:02.705Z,9.20
2022-12-23T09:16:29.209Z,9.30
2022-12-23T09:18:57.920Z,9.33
2022-12-23T09:21:24.540Z,9.44
2022-12-23T09:23:50.978Z,9.69
2022-12-23T09:26:17.329Z,9.49
2022-12-23T09:28:43.688Z,9.57
2022-12-23T09:31:10.184Z,9.46
2022-12-23T09:33:37.057Z,9.45
2022-12-23T09:36:03.420Z,9.53
2022-12-23T09:38:29.821Z,9.41
2022-12-23T09:40:56.159Z,9.42
2022-12-23T09:43:22.521Z,9.44
2022-12-23T09:45:48.963Z,9.39
2022-12-23T09:48:15.520Z,9.49
2022-12-23T09:50:41.959Z,9.52
2022-12-23T09:53:08.414Z,9.25
2022-12-23T09:55:34.849Z,9.30
2022-12-23T09:58:01.307Z,9.28
2022-12-23T10:00:27.648Z,9.32
2022-12-23T10:02:54.210Z,9.34
2022-12-23T10:05:21.033Z,9.41
2022-12-23T10:07:47.445Z,9.43
2022-12-23T10:10:13.790Z,9.49
2022-12-23T10:12:40.683Z,9.53
2022-12-23T10:15:07.353Z,9.66
2022-12-23T10:17:33.755Z,9.77
2022-12-23T10:20:00.188Z,9.73
2022-12-23T10:22:26.767Z,9.88
2022-12-23T10:24:53.156Z,10.04
2022-12-23T10:27:19.560Z,10.02
2022-12-23T10:29:45.909Z,10.00
2022-12-23T10:32:12.435Z,10.08
2022-12-23T10:34:38.962Z,9.81
2022-12-23T10:37:05.400Z,9.84
2022-12-23T10:39:31.990Z,9.84
2022-12-23T10:41:58.390Z,9.85
2022-12-23T10:44:24.746Z,9.70
2022-12-23T10:46:51.344Z,9.76
2022-12-23T10:49:17.810Z,9.86
2022-12-23T10:51:44.161Z,9.78
2022-12-23T10:54:12.303Z,9.88
2022-12-23T10:56:38.873Z,9.82
2022-12-23T10:59:05.239Z,9.78
2022-12-23T11:01:31.726Z,9.77
2022-12-23T11:03:58.249Z,9.77
2022-12-23T11:06:24.629Z,9.76
2022-12-23T11:08:51.124Z,9.93
2022-12-23T11:11:17.477Z,9.84
2022-12-23T11:13:43.869Z,9.71
2022-12-23T11:16:10.301Z,9.89
2022-12-23T11:18:41.945Z,9.88
2022-12-23T11:21:08.540Z,9.79
2022-12-23T11:23:36.544Z,9.74
2022-12-23T11:26:03.312Z,9.67
2022-12-23T11:28:29.693Z,9.72
2022-12-23T11:30:57.035Z,9.77
2022-12-23T11:33:23.628Z,9.65
2022-12-23T11:35:50.011Z,9.61
2022-12-23T11:38:16.642Z,9.78
2022-12-23T11:40:43.082Z,9.75
2022-12-23T11:43:09.493Z,9.87
2022-12-23T11:45:36.001Z,9.71
2022-12-23T11:48:03.269Z,9.75
2022-12-23T11:50:29.687Z,9.72
2022-12-23T11:52:56.145Z,9.66
2022-12-23T11:55:22.500Z,9.82
2022-12-23T11:57:48.948Z,9.76
2022-12-23T12:00:15.301Z,9.68
2022-12-23T12:02:41.892Z,9.76
2022-12-23T12:05:08.353Z,9.85
2022-12-23T12:07:34.743Z,9.99
2022-12-23T12:10:01.290Z,9.82
2022-12-23T12:12:27.720Z,9.76
2022-12-23T12:14:54.392Z,9.71
2022-12-23T12:17:20.937Z,9.81
2022-12-23T12:19:47.309Z,9.56
2022-12-23T12:22:14.477Z,9.71
2022-12-23T12:24:40.817Z,9.95
2022-12-23T12:27:07.838Z,9.86
2022-12-23T12:29:34.194Z,9.71
2022-12-23T12:32:00.615Z,9.67
2022-12-23T12:34:27.011Z,9.56
2022-12-23T12:36:55.917Z,9.76
2022-12-23T12:39:22.379Z,9.67
2022-12-23T12:41:48.840Z,9.77
2022-12-23T12:44:15.236Z,9.81
2022-12-23T12:46:41.602Z,9.74
2022-12-23T12:49:07.926Z,9.80
2022-12-23T12:51:34.269Z,9.72
2022-12-23T12:54:05.180Z,9.78
2022-12-23T12:56:34.777Z,9.80
2022-12-23T12:59:01.194Z,9.85
2022-12-23T13:01:27.853Z,9.72
2022-12-23T13:03:54.262Z,9.68
2022-12-23T13:06:20.657Z,9.50
2022-12-23T13:08:47.204Z,9.63
2022-12-23T13:11:13.698Z,9.69
2022-12-23T13:13:40.208Z,9.55
2022-12-23T13:16:07.769Z,9.62
2022-12-23T13:18:34.139Z,9.66
2022-12-23T13:21:00.480Z,9.64
2022-12-23T13:23:44.418Z,9.45
2022-12-23T13:26:11.351Z,9.55
2022-12-23T13:28:37.801Z,9.65
2022-12-23T13:31:04.227Z,9.65
2022-12-23T13:33:30.657Z,9.60
2022-12-23T13:36:04.725Z,9.64
2022-12-23T13:38:31.987Z,9.55
2022-12-23T13:40:59.836Z,9.36
2022-12-23T13:43:26.369Z,9.55
2022-12-23T13:45:52.785Z,9.33
2022-12-23T13:48:19.276Z,9.40
2022-12-23T13:50:45.602Z,9.45
2022-12-23T13:53:12.086Z,9.36
2022-12-23T13:55:38.464Z,9.44
2022-12-23T13:58:04.856Z,9.21
2022-12-23T14:00:31.273Z,9.26
2022-12-23T14:02:57.724Z,9.18
2022-12-23T14:05:24.130Z,9.34
2022-12-23T14:07:50.473Z,9.43
2022-12-23T14:10:16.850Z,9.52
2022-12-23T14:12:43.388Z,9.53
2022-12-23T14:15:09.744Z,9.10
2022-12-23T14:17:36.166Z,9.14
2022-12-23T14:20:02.518Z,8.98
2022-12-23T14:22:29.267Z,9.22
2022-12-23T14:24:55.601Z,9.21
2022-12-23T14:27:22.163Z,9.01
2022-12-23T14:29:48.524Z,9.07
2022-12-23T14:32:14.982Z,9.16
2022-12-23T14:34:41.467Z,9.16
2022-12-23T14:37:07.844Z,9.17
2022-12-23T14:39:34.379Z,9.22
2022-12-23T14:42:05.936Z,9.17
2022-12-23T14:44:33.806Z,8.90
2022-12-23T14:47:00.394Z,9.07
2022-12-23T14:49:38.991Z,8.64
2022-12-23T14:52:06.621Z,8.84
2022-12-23T14:54:33.000Z,8.95
2022-12-23T14:56:59.375Z,9.00
2022-12-23T14:59:25.731Z,9.25
2022-12-23T15:01:52.171Z,8.96
2022-12-23T15:04:19.303Z,8.85
2022-12-23T15:06:45.707Z,9.14
2022-12-23T15:09:12.052Z,9.04
2022-12-23T15:11:38.383Z,9.29
2022-12-23T15:14:04.756Z,9.47
2022-12-23T15:16:31.656Z,9.61
2022-12-23T15:18:58.142Z,9.72
2022-12-23T15:21:24.467Z,9.54
2022-12-23T15:23:50.893Z,9.37
2022-12-23T15:26:17.693Z,9.44
2022-12-23T15:28:44.068Z,9.37
2022-12-23T15:31:10.459Z,9.26
2022-12-23T15:34:02.974Z,9.22
2022-12-23T15:36:23.247Z,9.19
2022-12-23T15:38:49.772Z,9.18
2022-12-23T15:41:16.171Z,9.16
2022-12-23T15:43:42.668Z,9.42
2022-12-23T15:49:37.395Z,9.27
2022-12-23T15:52:09.693Z,9.09
2022-12-23T15:58:07.345Z,9.24
2022-12-23T16:00:33.756Z,9.28
2022-12-23T16:03:02.539Z,9.30
2022-12-23T16:05:30.134Z,9.15
2022-12-23T16:07:56.594Z,9.05
2022-12-23T16:10:22.959Z,9.05
2022-12-23T16:12:49.356Z,9.14
2022-12-23T16:15:15.744Z,8.97
2022-12-23T16:17:42.130Z,9.10
2022-12-23T16:20:08.555Z,8.78
2022-12-23T16:22:36.243Z,9.10
2022-12-23T16:25:02.756Z,8.80
2022-12-23T16:27:29.130Z,8.84
2022-12-23T16:29:55.661Z,8.79
2022-12-23T16:32:22.201Z,8.80
2022-12-23T16:34:48.702Z,8.86
2022-12-23T16:37:15.134Z,8.99
2022-12-23T16:39:41.560Z,9.04
2022-12-23T16:42:08.100Z,9.02
2022-12-23T16:44:34.506Z,9.14
2022-12-23T16:47:00.902Z,9.20
2022-12-23T16:49:33.148Z,8.96
2022-12-23T16:52:00.287Z,9.00
2022-12-23T16:54:26.627Z,8.86
2022-12-23T16:56:53.011Z,8.92
2022-12-23T16:59:20.715Z,8.80
2022-12-23T17:01:47.230Z,8.84
2022-12-23T17:04:13.794Z,8.75
2022-12-23T17:06:40.736Z,8.66
2022-12-23T17:09:08.318Z,8.51
2022-12-23T17:11:34.651Z,8.54
2022-12-23T17:14:06.767Z,8.68
2022-12-23T17:16:35.594Z,8.75
2022-12-23T17:19:01.995Z,8.72
2022-12-23T17:21:28.408Z,8.50
2022-12-23T17:23:56.679Z,8.29
2022-12-23T17:26:24.100Z,8.21
2022-12-23T17:28:50.501Z,8.29
2022-12-23T17:31:22.381Z,8.47
2022-12-23T17:33:52.600Z,8.65
2022-12-23T17:36:19.068Z,8.68
2022-12-23T17:38:45.472Z,8.89
2022-12-23T17:41:11.842Z,8.97
2022-12-23T17:43:38.481Z,8.90
2022-12-23T17:46:04.899Z,8.82
2022-12-23T17:48:32.023Z,8.64
2022-12-23T17:50:58.562Z,8.77
2022-12-23T17:53:24.980Z,8.45
2022-12-23T17:55:51.381Z,8.43
2022-12-23T17:58:17.837Z,8.45
2022-12-23T18:00:44.380Z,8.50
2022-12-23T18:03:11.083Z,8.36
2022-12-23T18:05:37.429Z,8.51
2022-12-23T18:08:03.840Z,8.60
2022-12-23T18:10:30.540Z,8.62
2022-12-23T18:12:57.015Z,8.51
2022-12-23T18:15:23.433Z,8.50
2022-12-23T18:17:49.871Z,8.48
2022-12-23T18:20:16.301Z,8.35
2022-12-23T18:22:42.764Z,8.29
2022-12-23T18:25:09.150Z,8.29
2022-12-23T18:27:35.549Z,8.03
2022-12-23T18:30:01.965Z,8.21
2022-12-23T18:32:46.269Z,8.36
2022-12-23T18:35:12.789Z,8.49
2022-12-23T18:37:39.162Z,8.43
2022-12-23T18:40:06.909Z,8.13
2022-12-23T18:42:33.293Z,7.95
2022-12-23T18:44:59.636Z,7.83
2022-12-23T18:47:26.096Z,7.92
2022-12-23T18:49:52.428Z,7.90
2022-12-23T18:52:18.870Z,7.86
2022-12-23T18:54:45.241Z,7.99
2022-12-23T18:57:11.699Z,8.09
2022-12-23T18:59:39.021Z,8.24
2022-12-23T19:02:05.601Z,8.23
2022-12-23T19:04:32.015Z,7.96
2022-12-23T19:06:58.417Z,8.07
2022-12-23T19:09:24.985Z,8.04
2022-12-23T19:11:51.403Z,8.03
2022-12-23T19:14:17.829Z,8.00
2022-12-23T19:16:50.887Z,8.07
2022-12-23T19:19:17.804Z,8.07
2022-12-23T19:21:44.191Z,8.12
2022-12-23T19:24:10.565Z,8.03
2022-12-23T19:26:36.947Z,8.07
2022-12-23T19:29:03.329Z,8.02
2022-12-23T19:31:29.933Z,8.04
2022-12-23T19:33:56.456Z,8.07
2022-12-23T19:36:25.000Z,8.04
2022-12-23T19:38:51.527Z,8.18
2022-12-23T19:41:17.933Z,7.97
2022-12-23T19:43:44.578Z,8.12
2022-12-23T19:46:10.987Z,8.08
2022-12-23T19:48:37.390Z,8.04
2022-12-23T19:51:03.780Z,8.16
2022-12-23T19:53:30.184Z,8.26
2022-12-23T19:55:59.019Z,8.43
2022-12-23T19:58:25.887Z,8.60
2022-12-23T20:00:52.346Z,8.68
2022-12-23T20:03:19.455Z,8.67
2022-12-23T20:05:45.897Z,8.84
2022-12-23T20:08:12.273Z,8.95
2022-12-23T20:10:40.587Z,8.89
2022-12-23T20:13:09.930Z,8.81
2022-12-23T20:15:36.756Z,8.91
2022-12-23T20:18:06.147Z,8.68
2022-12-23T20:20:32.839Z,8.81
2022-12-23T20:22:59.346Z,9.04
2022-12-23T20:25:25.703Z,9.08
2022-12-23T20:27:52.796Z,9.19
2022-12-23T20:30:19.210Z,9.30
2022-12-23T20:32:45.605Z,9.58
2022-12-23T20:35:12.023Z,9.64
2022-12-23T20:37:38.567Z,9.85
2022-12-23T20:40:05.070Z,9.87
2022-12-23T20:42:31.623Z,9.83
2022-12-23T20:44:57.975Z,9.85
2022-12-23T20:47:24.373Z,9.97
2022-12-23T20:49:50.889Z,10.00
2022-12-23T20:52:17.773Z,9.97
2022-12-23T20:54:47.244Z,10.23
2022-12-23T20:57:13.891Z,10.03
2022-12-23T20:59:42.609Z,10.22
2022-12-23T21:02:09.045Z,10.04
2022-12-23T21:04:35.499Z,10.10
2022-12-23T21:07:06.777Z,10.07
2022-12-23T21:09:33.213Z,10.15
2022-12-23T21:11:59.584Z,10.13
2022-12-23T21:14:26.037Z,10.12
2022-12-23T21:16:52.395Z,9.99
2022-12-23T21:19:18.773Z,10.05
2022-12-23T21:21:45.170Z,9.89
2022-12-23T21:24:11.568Z,10.06
2022-12-23T21:26:38.048Z,10.18
2022-12-23T21:29:04.464Z,10.07
2022-12-23T21:31:30.974Z,9.96
2022-12-23T21:33:57.409Z,10.33
2022-12-23T21:36:23.883Z,10.01
2022-12-23T21:38:50.381Z,10.34
2022-12-23T21:41:16.826Z,9.91
2022-12-23T21:43:43.243Z,9.93
2022-12-23T21:46:09.691Z,9.97
2022-12-23T21:48:36.182Z,10.18
2022-12-23T21:51:02.528Z,10.16
2022-12-23T21:53:28.956Z,9.98
2022-12-23T21:55:56.563Z,10.18
2022-12-23T21:58:24.111Z,10.12
2022-12-23T22:00:50.695Z,9.99
2022-12-23T22:03:20.148Z,9.81
2022-12-23T22:05:47.633Z,9.79
2022-12-23T22:08:14.653Z,9.65
2022-12-23T22:10:41.259Z,9.78
2022-12-23T22:13:07.974Z,9.70
2022-12-23T22:15:34.409Z,9.64
2022-12-23T22:18:01.770Z,9.61
2022-12-23T22:20:28.126Z,9.63
2022-12-23T22:22:54.625Z,9.69
2022-12-23T22:25:20.979Z,9.59
2022-12-23T22:27:47.346Z,9.53
2022-12-23T22:30:13.743Z,9.69
2022-12-23T22:32:42.552Z,9.65
2022-12-23T22:35:09.183Z,9.64
2022-12-23T22:37:35.599Z,9.73
2022-12-23T22:40:02.000Z,9.66
2022-12-23T22:42:28.500Z,9.64
2022-12-23T22:44:54.864Z,9.72
2022-12-23T22:47:21.397Z,9.85
2022-12-23T22:49:47.765Z,9.81
2022-12-23T22:52:15.047Z,9.80
2022-12-23T22:54:41.363Z,9.76
2022-12-23T22:57:07.739Z,9.82
2022-12-23T22:59:34.057Z,9.90
2022-12-23T23:02:00.520Z,9.89
2022-12-23T23:04:26.937Z,9.88
2022-12-23T23:06:53.278Z,9.95
2022-12-23T23:09:19.655Z,9.80
2022-12-23T23:11:46.024Z,9.88
2022-12-23T23:14:12.365Z,9.76
2022-12-23T23:16:38.751Z,9.82
2022-12-23T23:19:05.203Z,9.73
2022-12-23T23:21:31.602Z,9.79
2022-12-23T23:23:58.001Z,9.74
2022-12-23T23:26:27.608Z,9.64
2022-12-23T23:28:54.071Z,9.70
2022-12-23T23:34:06.752Z,9.85
2022-12-23T23:36:33.199Z,9.75
2022-12-23T23:38:59.606Z,9.68
2022-12-23T23:41:25.978Z,9.69
2022-12-23T23:43:52.340Z,9.81
2022-12-23T23:46:18.774Z,9.64
2022-12-23T23:48:45.255Z,9.67
2022-12-23T23:51:12.620Z,9.60
2022-12-23T23:53:39.067Z,9.83
2022-12-23T23:56:05.483Z,9.91
2022-12-23T23:58:31.962Z,9.74
